sensor_id;sensor_type;location;lat;lon;timestamp;temperature;humidity
40053;DHT22;25758;48.200;16.338;2022-07-06T00:01:20;20.80;99.60
40053;DHT22;25758;48.200;16.338;2022-07-06T00:03:46;20.80;99.70
40053;DHT22;25758;48.200;16.338;2022-07-06T00:06:11;20.80;99.80
40053;DHT22;25758;48.200;16.338;2022-07-06T00:08:38;20.80;99.80
40053;DHT22;25758;48.200;16.338;2022-07-06T00:11:04;20.80;99.90
40053;DHT22;25758;48.200;16.338;2022-07-06T00:13:30;20.80;99.90
40053;DHT22;25758;48.200;16.338;2022-07-06T00:15:55;20.80;99.90
40053;DHT22;25758;48.200;16.338;2022-07-06T00:18:21;20.80;99.90
40053;DHT22;25758;48.200;16.338;2022-07-06T00:20:47;20.80;99.90
40053;DHT22;25758;48.200;16.338;2022-07-06T00:23:13;20.80;99.90
40053;DHT22;25758;48.200;16.338;2022-07-06T00:25:38;20.90;99.90
40053;DHT22;25758;48.200;16.338;2022-07-06T00:28:04;20.90;99.80
40053;DHT22;25758;48.200;16.338;2022-07-06T00:30:30;20.80;99.60
40053;DHT22;25758;48.200;16.338;2022-07-06T00:32:56;20.80;99.60
40053;DHT22;25758;48.200;16.338;2022-07-06T00:35:24;20.80;99.50
40053;DHT22;25758;48.200;16.338;2022-07-06T00:37:49;20.80;99.40
40053;DHT22;25758;48.200;16.338;2022-07-06T00:40:15;20.90;99.50
40053;DHT22;25758;48.200;16.338;2022-07-06T00:42:41;20.70;99.90
40053;DHT22;25758;48.200;16.338;2022-07-06T00:45:07;20.70;99.90
40053;DHT22;25758;48.200;16.338;2022-07-06T00:47:33;20.70;99.90
40053;DHT22;25758;48.200;16.338;2022-07-06T00:49:59;20.70;99.90
40053;DHT22;25758;48.200;16.338;2022-07-06T00:53:01;20.80;99.90
40053;DHT22;25758;48.200;16.338;2022-07-06T00:55:34;20.70;99.90
40053;DHT22;25758;48.200;16.338;2022-07-06T00:58:04;20.60;99.90
40053;DHT22;25758;48.200;16.338;2022-07-06T01:00:30;20.60;99.90
40053;DHT22;25758;48.200;16.338;2022-07-06T01:02:56;20.60;99.90
40053;DHT22;25758;48.200;16.338;2022-07-06T01:05:22;20.70;99.90
40053;DHT22;25758;48.200;16.338;2022-07-06T01:07:49;20.70;99.90
40053;DHT22;25758;48.200;16.338;2022-07-06T01:10:16;20.60;99.90
40053;DHT22;25758;48.200;16.338;2022-07-06T01:12:44;20.60;99.90
40053;DHT22;25758;48.200;16.338;2022-07-06T01:15:17;20.60;99.90
40053;DHT22;25758;48.200;16.338;2022-07-06T01:17:43;20.60;99.90
40053;DHT22;25758;48.200;16.338;2022-07-06T01:20:16;20.60;99.90
40053;DHT22;25758;48.200;16.338;2022-07-06T01:22:43;20.70;99.90
40053;DHT22;25758;48.200;16.338;2022-07-06T01:25:09;20.70;99.90
40053;DHT22;25758;48.200;16.338;2022-07-06T01:27:37;20.70;99.90
40053;DHT22;25758;48.200;16.338;2022-07-06T01:30:12;20.60;99.90
40053;DHT22;25758;48.200;16.338;2022-07-06T01:32:39;20.60;99.90
40053;DHT22;25758;48.200;16.338;2022-07-06T01:35:07;20.60;99.90
40053;DHT22;25758;48.200;16.338;2022-07-06T01:37:33;20.70;99.90
40053;DHT22;25758;48.200;16.338;2022-07-06T01:40:07;20.70;99.90
40053;DHT22;25758;48.200;16.338;2022-07-06T01:42:34;20.70;99.90
40053;DHT22;25758;48.200;16.338;2022-07-06T01:45:00;20.70;99.90
40053;DHT22;25758;48.200;16.338;2022-07-06T01:47:26;20.70;99.90
40053;DHT22;25758;48.200;16.338;2022-07-06T01:49:52;20.70;99.90
40053;DHT22;25758;48.200;16.338;2022-07-06T01:52:17;20.80;99.90
40053;DHT22;25758;48.200;16.338;2022-07-06T01:54:43;20.80;99.90
40053;DHT22;25758;48.200;16.338;2022-07-06T01:57:09;20.80;99.90
40053;DHT22;25758;48.200;16.338;2022-07-06T01:59:34;20.80;99.90
40053;DHT22;25758;48.200;16.338;2022-07-06T02:02:00;20.80;99.90
40053;DHT22;25758;48.200;16.338;2022-07-06T02:04:26;20.80;99.90
40053;DHT22;25758;48.200;16.338;2022-07-06T02:06:52;20.80;99.90
40053;DHT22;25758;48.200;16.338;2022-07-06T02:09:18;20.90;99.90
40053;DHT22;25758;48.200;16.338;2022-07-06T02:11:44;20.90;99.90
40053;DHT22;25758;48.200;16.338;2022-07-06T02:14:10;20.80;99.90
40053;DHT22;25758;48.200;16.338;2022-07-06T02:16:35;20.90;99.90
40053;DHT22;25758;48.200;16.338;2022-07-06T02:19:01;20.90;99.90
40053;DHT22;25758;48.200;16.338;2022-07-06T02:21:27;20.80;99.90
40053;DHT22;25758;48.200;16.338;2022-07-06T02:23:53;20.80;99.90
40053;DHT22;25758;48.200;16.338;2022-07-06T02:28:44;20.80;99.90
40053;DHT22;25758;48.200;16.338;2022-07-06T02:40:56;20.90;99.90
40053;DHT22;25758;48.200;16.338;2022-07-06T02:50:40;20.80;99.90
40053;DHT22;25758;48.200;16.338;2022-07-06T02:55:32;20.80;99.90
40053;DHT22;25758;48.200;16.338;2022-07-06T03:00:24;20.70;99.90
40053;DHT22;25758;48.200;16.338;2022-07-06T03:05:15;20.70;99.90
40053;DHT22;25758;48.200;16.338;2022-07-06T03:07:41;20.70;99.90
40053;DHT22;25758;48.200;16.338;2022-07-06T03:10:07;20.70;99.90
40053;DHT22;25758;48.200;16.338;2022-07-06T03:12:33;20.70;99.90
40053;DHT22;25758;48.200;16.338;2022-07-06T03:14:58;20.70;99.90
40053;DHT22;25758;48.200;16.338;2022-07-06T03:17:24;20.70;99.90
40053;DHT22;25758;48.200;16.338;2022-07-06T03:19:49;20.70;99.90
40053;DHT22;25758;48.200;16.338;2022-07-06T03:22:15;20.70;99.90
40053;DHT22;25758;48.200;16.338;2022-07-06T03:24:41;20.60;99.90
40053;DHT22;25758;48.200;16.338;2022-07-06T03:31:59;20.60;99.90
40053;DHT22;25758;48.200;16.338;2022-07-06T03:34:24;20.50;99.90
40053;DHT22;25758;48.200;16.338;2022-07-06T03:36:50;20.60;99.90
40053;DHT22;25758;48.200;16.338;2022-07-06T03:39:16;20.50;99.90
40053;DHT22;25758;48.200;16.338;2022-07-06T03:41:41;20.50;99.90
40053;DHT22;25758;48.200;16.338;2022-07-06T03:44:07;20.50;99.90
40053;DHT22;25758;48.200;16.338;2022-07-06T03:46:32;20.50;99.90
40053;DHT22;25758;48.200;16.338;2022-07-06T03:51:24;20.50;99.90
40053;DHT22;25758;48.200;16.338;2022-07-06T03:58:55;20.50;99.90
40053;DHT22;25758;48.200;16.338;2022-07-06T04:01:21;20.50;99.90
40053;DHT22;25758;48.200;16.338;2022-07-06T04:03:47;20.50;99.90
40053;DHT22;25758;48.200;16.338;2022-07-06T04:06:12;20.50;99.90
40053;DHT22;25758;48.200;16.338;2022-07-06T04:08:38;20.50;99.90
40053;DHT22;25758;48.200;16.338;2022-07-06T04:11:04;20.50;99.90
40053;DHT22;25758;48.200;16.338;2022-07-06T04:13:29;20.50;99.90
40053;DHT22;25758;48.200;16.338;2022-07-06T04:15:55;20.60;99.90
40053;DHT22;25758;48.200;16.338;2022-07-06T04:18:21;20.60;99.90
40053;DHT22;25758;48.200;16.338;2022-07-06T04:20:46;20.60;99.90
40053;DHT22;25758;48.200;16.338;2022-07-06T04:23:12;20.60;99.90
40053;DHT22;25758;48.200;16.338;2022-07-06T04:25:37;20.60;99.90
40053;DHT22;25758;48.200;16.338;2022-07-06T04:28:03;20.60;99.80
40053;DHT22;25758;48.200;16.338;2022-07-06T04:30:29;20.60;99.70
40053;DHT22;25758;48.200;16.338;2022-07-06T04:32:55;20.60;99.30
40053;DHT22;25758;48.200;16.338;2022-07-06T04:35:23;20.70;99.00
40053;DHT22;25758;48.200;16.338;2022-07-06T04:37:49;20.70;99.20
40053;DHT22;25758;48.200;16.338;2022-07-06T04:40:14;20.70;99.20
40053;DHT22;25758;48.200;16.338;2022-07-06T04:42:40;20.70;99.00
40053;DHT22;25758;48.200;16.338;2022-07-06T04:45:06;20.80;99.00
40053;DHT22;25758;48.200;16.338;2022-07-06T04:47:32;20.80;98.70
40053;DHT22;25758;48.200;16.338;2022-07-06T04:49:57;20.80;98.70
40053;DHT22;25758;48.200;16.338;2022-07-06T04:52:23;20.80;98.30
40053;DHT22;25758;48.200;16.338;2022-07-06T04:54:49;20.80;98.10
40053;DHT22;25758;48.200;16.338;2022-07-06T04:57:14;20.80;97.70
40053;DHT22;25758;48.200;16.338;2022-07-06T04:59:40;20.80;97.70
40053;DHT22;25758;48.200;16.338;2022-07-06T05:02:06;20.80;97.60
40053;DHT22;25758;48.200;16.338;2022-07-06T05:04:31;20.80;97.80
40053;DHT22;25758;48.200;16.338;2022-07-06T05:06:57;20.80;97.80
40053;DHT22;25758;48.200;16.338;2022-07-06T05:09:22;20.80;98.00
40053;DHT22;25758;48.200;16.338;2022-07-06T05:11:48;20.90;98.10
40053;DHT22;25758;48.200;16.338;2022-07-06T05:14:14;20.90;98.20
40053;DHT22;25758;48.200;16.338;2022-07-06T05:16:39;20.90;98.50
40053;DHT22;25758;48.200;16.338;2022-07-06T05:19:05;20.80;98.80
40053;DHT22;25758;48.200;16.338;2022-07-06T05:21:31;20.90;98.80
40053;DHT22;25758;48.200;16.338;2022-07-06T05:23:56;20.90;98.90
40053;DHT22;25758;48.200;16.338;2022-07-06T05:26:22;20.90;99.00
40053;DHT22;25758;48.200;16.338;2022-07-06T05:28:47;20.90;99.00
40053;DHT22;25758;48.200;16.338;2022-07-06T05:31:13;21.00;98.90
40053;DHT22;25758;48.200;16.338;2022-07-06T05:33:39;21.00;99.00
40053;DHT22;25758;48.200;16.338;2022-07-06T05:36:04;21.00;99.00
40053;DHT22;25758;48.200;16.338;2022-07-06T05:38:30;21.00;99.10
40053;DHT22;25758;48.200;16.338;2022-07-06T05:40:56;21.00;99.10
40053;DHT22;25758;48.200;16.338;2022-07-06T05:43:21;21.10;99.10
40053;DHT22;25758;48.200;16.338;2022-07-06T05:45:47;21.10;98.70
40053;DHT22;25758;48.200;16.338;2022-07-06T05:48:13;21.20;98.90
40053;DHT22;25758;48.200;16.338;2022-07-06T05:50:57;21.20;98.70
40053;DHT22;25758;48.200;16.338;2022-07-06T05:53:23;21.20;98.70
40053;DHT22;25758;48.200;16.338;2022-07-06T05:55:48;21.20;98.60
40053;DHT22;25758;48.200;16.338;2022-07-06T05:58:14;21.30;98.70
40053;DHT22;25758;48.200;16.338;2022-07-06T06:00:40;21.30;98.50
40053;DHT22;25758;48.200;16.338;2022-07-06T06:03:06;21.20;98.60
40053;DHT22;25758;48.200;16.338;2022-07-06T06:05:32;21.30;98.80
40053;DHT22;25758;48.200;16.338;2022-07-06T06:07:57;21.30;98.70
40053;DHT22;25758;48.200;16.338;2022-07-06T06:10:23;21.30;98.80
40053;DHT22;25758;48.200;16.338;2022-07-06T06:12:50;21.30;98.90
40053;DHT22;25758;48.200;16.338;2022-07-06T06:15:16;21.40;98.80
40053;DHT22;25758;48.200;16.338;2022-07-06T06:17:42;21.40;99.00
40053;DHT22;25758;48.200;16.338;2022-07-06T06:20:10;21.40;99.00
40053;DHT22;25758;48.200;16.338;2022-07-06T06:22:49;21.50;99.00
40053;DHT22;25758;48.200;16.338;2022-07-06T06:25:16;21.50;98.90
40053;DHT22;25758;48.200;16.338;2022-07-06T06:27:42;21.50;98.70
40053;DHT22;25758;48.200;16.338;2022-07-06T06:30:09;21.60;98.90
40053;DHT22;25758;48.200;16.338;2022-07-06T06:32:34;21.60;98.80
40053;DHT22;25758;48.200;16.338;2022-07-06T06:35:00;21.70;98.60
40053;DHT22;25758;48.200;16.338;2022-07-06T06:37:26;21.70;98.60
40053;DHT22;25758;48.200;16.338;2022-07-06T06:39:51;21.80;98.50
40053;DHT22;25758;48.200;16.338;2022-07-06T06:42:17;21.80;98.30
40053;DHT22;25758;48.200;16.338;2022-07-06T06:44:42;21.90;98.10
40053;DHT22;25758;48.200;16.338;2022-07-06T06:47:08;21.90;98.10
40053;DHT22;25758;48.200;16.338;2022-07-06T06:49:34;21.90;98.10
40053;DHT22;25758;48.200;16.338;2022-07-06T06:51:59;21.90;98.20
40053;DHT22;25758;48.200;16.338;2022-07-06T06:54:25;21.90;98.30
40053;DHT22;25758;48.200;16.338;2022-07-06T06:56:51;21.90;98.60
40053;DHT22;25758;48.200;16.338;2022-07-06T06:59:16;22.00;98.60
40053;DHT22;25758;48.200;16.338;2022-07-06T07:01:42;22.00;98.10
40053;DHT22;25758;48.200;16.338;2022-07-06T07:04:08;22.00;97.50
40053;DHT22;25758;48.200;16.338;2022-07-06T07:06:34;22.10;97.30
40053;DHT22;25758;48.200;16.338;2022-07-06T07:08:59;22.10;97.00
40053;DHT22;25758;48.200;16.338;2022-07-06T07:11:25;22.10;96.90
40053;DHT22;25758;48.200;16.338;2022-07-06T07:13:50;22.20;97.00
40053;DHT22;25758;48.200;16.338;2022-07-06T07:16:16;22.20;96.50
40053;DHT22;25758;48.200;16.338;2022-07-06T07:18:42;22.30;96.40
40053;DHT22;25758;48.200;16.338;2022-07-06T07:21:07;22.30;96.40
40053;DHT22;25758;48.200;16.338;2022-07-06T07:23:33;22.40;96.30
40053;DHT22;25758;48.200;16.338;2022-07-06T07:25:59;22.50;96.10
40053;DHT22;25758;48.200;16.338;2022-07-06T07:28:24;22.70;96.20
40053;DHT22;25758;48.200;16.338;2022-07-06T07:30:50;22.70;96.20
40053;DHT22;25758;48.200;16.338;2022-07-06T07:33:16;22.90;96.10
40053;DHT22;25758;48.200;16.338;2022-07-06T07:35:42;23.00;95.90
40053;DHT22;25758;48.200;16.338;2022-07-06T07:38:07;23.20;96.00
40053;DHT22;25758;48.200;16.338;2022-07-06T07:40:33;23.50;95.30
40053;DHT22;25758;48.200;16.338;2022-07-06T07:43:00;23.70;94.70
40053;DHT22;25758;48.200;16.338;2022-07-06T07:45:26;23.70;94.20
40053;DHT22;25758;48.200;16.338;2022-07-06T07:47:52;23.60;94.40
40053;DHT22;25758;48.200;16.338;2022-07-06T07:50:17;23.60;94.50
40053;DHT22;25758;48.200;16.338;2022-07-06T07:52:43;23.50;94.60
40053;DHT22;25758;48.200;16.338;2022-07-06T07:55:09;23.50;94.60
40053;DHT22;25758;48.200;16.338;2022-07-06T07:57:35;23.40;94.50
40053;DHT22;25758;48.200;16.338;2022-07-06T08:00:01;23.30;94.60
40053;DHT22;25758;48.200;16.338;2022-07-06T08:02:27;23.40;94.60
40053;DHT22;25758;48.200;16.338;2022-07-06T08:04:52;23.40;94.40
40053;DHT22;25758;48.200;16.338;2022-07-06T08:07:18;23.40;94.40
40053;DHT22;25758;48.200;16.338;2022-07-06T08:09:44;23.40;94.30
40053;DHT22;25758;48.200;16.338;2022-07-06T08:12:10;23.50;94.20
40053;DHT22;25758;48.200;16.338;2022-07-06T08:14:35;23.70;94.20
40053;DHT22;25758;48.200;16.338;2022-07-06T08:17:03;24.20;93.70
40053;DHT22;25758;48.200;16.338;2022-07-06T08:19:28;24.60;93.20
40053;DHT22;25758;48.200;16.338;2022-07-06T08:21:56;24.90;92.90
40053;DHT22;25758;48.200;16.338;2022-07-06T08:24:21;25.10;92.60
40053;DHT22;25758;48.200;16.338;2022-07-06T08:26:47;25.20;92.20
40053;DHT22;25758;48.200;16.338;2022-07-06T08:29:13;25.50;91.70
40053;DHT22;25758;48.200;16.338;2022-07-06T08:31:38;25.60;91.80
40053;DHT22;25758;48.200;16.338;2022-07-06T08:34:04;25.90;91.10
40053;DHT22;25758;48.200;16.338;2022-07-06T08:36:30;25.90;90.80
40053;DHT22;25758;48.200;16.338;2022-07-06T08:38:56;26.00;90.60
40053;DHT22;25758;48.200;16.338;2022-07-06T08:41:23;26.20;90.70
40053;DHT22;25758;48.200;16.338;2022-07-06T08:43:51;26.30;90.50
40053;DHT22;25758;48.200;16.338;2022-07-06T08:46:17;26.50;90.10
40053;DHT22;25758;48.200;16.338;2022-07-06T08:48:44;26.70;89.90
40053;DHT22;25758;48.200;16.338;2022-07-06T08:51:13;26.80;88.90
40053;DHT22;25758;48.200;16.338;2022-07-06T08:53:40;26.90;88.80
40053;DHT22;25758;48.200;16.338;2022-07-06T08:56:06;26.90;87.80
40053;DHT22;25758;48.200;16.338;2022-07-06T08:58:32;26.90;88.30
40053;DHT22;25758;48.200;16.338;2022-07-06T09:00:58;26.80;88.30
40053;DHT22;25758;48.200;16.338;2022-07-06T09:03:25;26.70;88.30
40053;DHT22;25758;48.200;16.338;2022-07-06T09:05:52;26.40;87.70
40053;DHT22;25758;48.200;16.338;2022-07-06T09:08:18;26.30;85.60
40053;DHT22;25758;48.200;16.338;2022-07-06T09:10:45;26.40;85.80
40053;DHT22;25758;48.200;16.338;2022-07-06T09:13:10;26.30;87.10
40053;DHT22;25758;48.200;16.338;2022-07-06T09:15:37;26.30;87.80
40053;DHT22;25758;48.200;16.338;2022-07-06T09:18:06;26.30;87.20
40053;DHT22;25758;48.200;16.338;2022-07-06T09:20:33;26.20;86.20
40053;DHT22;25758;48.200;16.338;2022-07-06T09:23:03;26.30;86.40
40053;DHT22;25758;48.200;16.338;2022-07-06T09:25:30;26.30;86.20
40053;DHT22;25758;48.200;16.338;2022-07-06T09:27:57;26.30;86.40
40053;DHT22;25758;48.200;16.338;2022-07-06T09:30:25;26.40;86.60
40053;DHT22;25758;48.200;16.338;2022-07-06T09:32:53;26.60;87.20
40053;DHT22;25758;48.200;16.338;2022-07-06T09:38:10;26.70;86.80
40053;DHT22;25758;48.200;16.338;2022-07-06T09:40:44;26.50;86.10
40053;DHT22;25758;48.200;16.338;2022-07-06T09:43:17;26.60;86.10
40053;DHT22;25758;48.200;16.338;2022-07-06T09:45:54;26.60;87.00
40053;DHT22;25758;48.200;16.338;2022-07-06T09:48:21;26.80;87.10
40053;DHT22;25758;48.200;16.338;2022-07-06T09:50:52;26.80;86.20
40053;DHT22;25758;48.200;16.338;2022-07-06T09:53:20;26.70;84.80
40053;DHT22;25758;48.200;16.338;2022-07-06T09:55:51;26.70;85.50
40053;DHT22;25758;48.200;16.338;2022-07-06T09:58:17;26.70;83.60
40053;DHT22;25758;48.200;16.338;2022-07-06T10:00:45;26.80;84.20
40053;DHT22;25758;48.200;16.338;2022-07-06T10:03:11;26.90;85.20
40053;DHT22;25758;48.200;16.338;2022-07-06T10:05:39;27.00;84.70
40053;DHT22;25758;48.200;16.338;2022-07-06T10:08:06;27.00;84.30
40053;DHT22;25758;48.200;16.338;2022-07-06T10:10:35;27.00;83.50
40053;DHT22;25758;48.200;16.338;2022-07-06T10:13:02;27.00;84.70
40053;DHT22;25758;48.200;16.338;2022-07-06T10:15:29;27.00;83.00
40053;DHT22;25758;48.200;16.338;2022-07-06T10:18:00;27.10;80.10
40053;DHT22;25758;48.200;16.338;2022-07-06T10:20:32;26.90;79.40
40053;DHT22;25758;48.200;16.338;2022-07-06T10:23:01;26.90;79.40
40053;DHT22;25758;48.200;16.338;2022-07-06T10:25:28;26.70;79.80
40053;DHT22;25758;48.200;16.338;2022-07-06T10:27:54;26.60;80.70
40053;DHT22;25758;48.200;16.338;2022-07-06T10:30:21;26.50;80.10
40053;DHT22;25758;48.200;16.338;2022-07-06T10:32:48;26.30;80.80
40053;DHT22;25758;48.200;16.338;2022-07-06T10:35:16;26.30;82.10
40053;DHT22;25758;48.200;16.338;2022-07-06T10:37:43;26.30;82.60
40053;DHT22;25758;48.200;16.338;2022-07-06T10:40:09;26.20;82.30
40053;DHT22;25758;48.200;16.338;2022-07-06T10:42:58;26.00;83.00
40053;DHT22;25758;48.200;16.338;2022-07-06T10:50:47;25.70;84.40
40053;DHT22;25758;48.200;16.338;2022-07-06T10:53:14;25.60;86.50
40053;DHT22;25758;48.200;16.338;2022-07-06T10:55:45;25.40;89.60
40053;DHT22;25758;48.200;16.338;2022-07-06T10:58:13;24.90;89.10
40053;DHT22;25758;48.200;16.338;2022-07-06T11:00:53;24.50;88.00
40053;DHT22;25758;48.200;16.338;2022-07-06T11:03:41;24.20;88.10
40053;DHT22;25758;48.200;16.338;2022-07-06T11:11:13;23.30;87.90
40053;DHT22;25758;48.200;16.338;2022-07-06T11:13:56;23.30;88.10
40053;DHT22;25758;48.200;16.338;2022-07-06T11:16:23;23.10;87.60
40053;DHT22;25758;48.200;16.338;2022-07-06T11:24:14;23.00;87.10
40053;DHT22;25758;48.200;16.338;2022-07-06T11:26:41;23.10;87.00
40053;DHT22;25758;48.200;16.338;2022-07-06T11:29:09;23.20;85.40
40053;DHT22;25758;48.200;16.338;2022-07-06T11:31:37;23.20;86.20
40053;DHT22;25758;48.200;16.338;2022-07-06T11:34:04;23.40;87.10
40053;DHT22;25758;48.200;16.338;2022-07-06T11:36:30;23.50;86.50
40053;DHT22;25758;48.200;16.338;2022-07-06T11:38:56;23.60;86.40
40053;DHT22;25758;48.200;16.338;2022-07-06T11:41:22;23.80;86.80
40053;DHT22;25758;48.200;16.338;2022-07-06T11:43:48;23.90;86.90
40053;DHT22;25758;48.200;16.338;2022-07-06T11:46:35;24.10;87.90
40053;DHT22;25758;48.200;16.338;2022-07-06T11:49:02;24.20;86.40
40053;DHT22;25758;48.200;16.338;2022-07-06T11:51:30;24.20;86.50
40053;DHT22;25758;48.200;16.338;2022-07-06T11:53:59;24.30;87.50
40053;DHT22;25758;48.200;16.338;2022-07-06T11:56:25;24.40;88.10
40053;DHT22;25758;48.200;16.338;2022-07-06T11:59:01;24.50;88.70
40053;DHT22;25758;48.200;16.338;2022-07-06T12:01:28;24.60;88.70
40053;DHT22;25758;48.200;16.338;2022-07-06T12:04:00;24.60;88.60
40053;DHT22;25758;48.200;16.338;2022-07-06T12:06:27;24.70;89.00
40053;DHT22;25758;48.200;16.338;2022-07-06T12:08:58;24.70;88.60
40053;DHT22;25758;48.200;16.338;2022-07-06T12:11:26;24.80;88.80
40053;DHT22;25758;48.200;16.338;2022-07-06T12:13:55;24.80;88.60
40053;DHT22;25758;48.200;16.338;2022-07-06T12:16:21;24.80;89.10
40053;DHT22;25758;48.200;16.338;2022-07-06T12:18:49;24.90;89.70
40053;DHT22;25758;48.200;16.338;2022-07-06T12:21:18;24.90;89.80
40053;DHT22;25758;48.200;16.338;2022-07-06T12:23:48;25.00;90.20
40053;DHT22;25758;48.200;16.338;2022-07-06T12:26:16;25.00;87.30
40053;DHT22;25758;48.200;16.338;2022-07-06T12:28:43;25.10;87.40
40053;DHT22;25758;48.200;16.338;2022-07-06T12:31:10;25.20;85.40
40053;DHT22;25758;48.200;16.338;2022-07-06T12:33:36;25.20;81.60
40053;DHT22;25758;48.200;16.338;2022-07-06T12:36:13;25.20;81.40
40053;DHT22;25758;48.200;16.338;2022-07-06T12:38:47;25.20;81.90
40053;DHT22;25758;48.200;16.338;2022-07-06T12:41:26;25.20;82.90
40053;DHT22;25758;48.200;16.338;2022-07-06T12:44:00;25.20;81.60
40053;DHT22;25758;48.200;16.338;2022-07-06T12:46:28;25.30;82.40
40053;DHT22;25758;48.200;16.338;2022-07-06T12:49:00;25.20;83.40
40053;DHT22;25758;48.200;16.338;2022-07-06T12:51:26;25.30;84.00
40053;DHT22;25758;48.200;16.338;2022-07-06T12:53:52;25.40;83.60
40053;DHT22;25758;48.200;16.338;2022-07-06T12:56:18;25.40;82.70
40053;DHT22;25758;48.200;16.338;2022-07-06T12:59:00;25.40;83.20
40053;DHT22;25758;48.200;16.338;2022-07-06T13:01:26;25.50;82.50
40053;DHT22;25758;48.200;16.338;2022-07-06T13:03:56;25.60;81.70
40053;DHT22;25758;48.200;16.338;2022-07-06T13:06:33;25.70;81.20
40053;DHT22;25758;48.200;16.338;2022-07-06T13:08:59;25.80;82.30
40053;DHT22;25758;48.200;16.338;2022-07-06T13:11:25;25.80;82.10
40053;DHT22;25758;48.200;16.338;2022-07-06T13:13:51;25.90;81.50
40053;DHT22;25758;48.200;16.338;2022-07-06T13:16:17;26.00;80.30
40053;DHT22;25758;48.200;16.338;2022-07-06T13:18:43;26.00;79.40
40053;DHT22;25758;48.200;16.338;2022-07-06T13:21:08;26.10;79.70
40053;DHT22;25758;48.200;16.338;2022-07-06T13:23:34;26.10;78.90
40053;DHT22;25758;48.200;16.338;2022-07-06T13:25:59;26.00;76.80
40053;DHT22;25758;48.200;16.338;2022-07-06T13:28:25;26.00;77.00
40053;DHT22;25758;48.200;16.338;2022-07-06T13:30:51;26.00;76.60
40053;DHT22;25758;48.200;16.338;2022-07-06T13:33:16;26.00;75.30
40053;DHT22;25758;48.200;16.338;2022-07-06T13:35:42;26.00;74.70
40053;DHT22;25758;48.200;16.338;2022-07-06T13:38:08;25.90;74.20
40053;DHT22;25758;48.200;16.338;2022-07-06T13:40:34;25.90;75.00
40053;DHT22;25758;48.200;16.338;2022-07-06T13:43:01;25.90;75.30
40053;DHT22;25758;48.200;16.338;2022-07-06T13:45:26;25.70;74.70
40053;DHT22;25758;48.200;16.338;2022-07-06T13:47:52;25.60;76.70
40053;DHT22;25758;48.200;16.338;2022-07-06T13:50:18;25.50;77.00
40053;DHT22;25758;48.200;16.338;2022-07-06T13:52:43;25.40;77.10
40053;DHT22;25758;48.200;16.338;2022-07-06T13:55:09;25.20;77.00
40053;DHT22;25758;48.200;16.338;2022-07-06T13:57:35;25.10;76.50
40053;DHT22;25758;48.200;16.338;2022-07-06T14:00:01;25.00;76.60
40053;DHT22;25758;48.200;16.338;2022-07-06T14:02:27;24.90;77.00
40053;DHT22;25758;48.200;16.338;2022-07-06T14:04:52;24.80;77.40
40053;DHT22;25758;48.200;16.338;2022-07-06T14:07:18;24.80;77.70
40053;DHT22;25758;48.200;16.338;2022-07-06T14:09:44;24.80;77.80
40053;DHT22;25758;48.200;16.338;2022-07-06T14:12:09;24.80;78.10
40053;DHT22;25758;48.200;16.338;2022-07-06T14:14:35;24.70;78.50
40053;DHT22;25758;48.200;16.338;2022-07-06T14:17:01;24.80;79.10
40053;DHT22;25758;48.200;16.338;2022-07-06T14:19:26;24.80;78.80
40053;DHT22;25758;48.200;16.338;2022-07-06T14:21:52;24.80;79.60
40053;DHT22;25758;48.200;16.338;2022-07-06T14:24:17;24.70;79.00
40053;DHT22;25758;48.200;16.338;2022-07-06T14:26:43;24.80;78.80
40053;DHT22;25758;48.200;16.338;2022-07-06T14:29:09;24.70;78.50
40053;DHT22;25758;48.200;16.338;2022-07-06T14:31:34;24.70;78.90
40053;DHT22;25758;48.200;16.338;2022-07-06T14:34:00;24.60;78.80
40053;DHT22;25758;48.200;16.338;2022-07-06T14:36:26;24.60;78.80
40053;DHT22;25758;48.200;16.338;2022-07-06T14:38:51;24.40;79.80
40053;DHT22;25758;48.200;16.338;2022-07-06T14:41:17;24.30;81.50
40053;DHT22;25758;48.200;16.338;2022-07-06T14:43:43;24.00;83.60
40053;DHT22;25758;48.200;16.338;2022-07-06T14:46:08;23.90;84.90
40053;DHT22;25758;48.200;16.338;2022-07-06T14:48:34;23.70;86.20
40053;DHT22;25758;48.200;16.338;2022-07-06T14:51:00;23.60;87.40
40053;DHT22;25758;48.200;16.338;2022-07-06T14:53:25;23.50;89.00
40053;DHT22;25758;48.200;16.338;2022-07-06T14:55:51;23.40;90.10
40053;DHT22;25758;48.200;16.338;2022-07-06T14:58:17;23.30;90.10
40053;DHT22;25758;48.200;16.338;2022-07-06T15:00:44;23.30;90.00
40053;DHT22;25758;48.200;16.338;2022-07-06T15:03:10;23.30;89.70
40053;DHT22;25758;48.200;16.338;2022-07-06T15:05:36;23.30;90.30
40053;DHT22;25758;48.200;16.338;2022-07-06T15:08:02;23.30;90.80
40053;DHT22;25758;48.200;16.338;2022-07-06T15:10:28;23.20;91.10
40053;DHT22;25758;48.200;16.338;2022-07-06T15:12:54;23.20;91.00
40053;DHT22;25758;48.200;16.338;2022-07-06T15:15:20;23.20;91.10
40053;DHT22;25758;48.200;16.338;2022-07-06T15:17:45;23.10;91.20
40053;DHT22;25758;48.200;16.338;2022-07-06T15:20:11;23.20;91.30
40053;DHT22;25758;48.200;16.338;2022-07-06T15:22:37;23.30;91.10
40053;DHT22;25758;48.200;16.338;2022-07-06T15:25:03;23.40;90.20
40053;DHT22;25758;48.200;16.338;2022-07-06T15:27:29;23.50;89.80
40053;DHT22;25758;48.200;16.338;2022-07-06T15:29:55;23.60;89.70
40053;DHT22;25758;48.200;16.338;2022-07-06T15:32:21;23.60;87.60
40053;DHT22;25758;48.200;16.338;2022-07-06T15:34:47;23.70;86.60
40053;DHT22;25758;48.200;16.338;2022-07-06T15:37:13;23.70;84.70
40053;DHT22;25758;48.200;16.338;2022-07-06T15:39:39;23.80;85.50
40053;DHT22;25758;48.200;16.338;2022-07-06T15:42:05;23.80;85.70
40053;DHT22;25758;48.200;16.338;2022-07-06T15:44:31;23.80;84.00
40053;DHT22;25758;48.200;16.338;2022-07-06T15:46:57;23.90;83.30
40053;DHT22;25758;48.200;16.338;2022-07-06T15:49:28;23.90;82.90
40053;DHT22;25758;48.200;16.338;2022-07-06T15:51:53;24.00;81.60
40053;DHT22;25758;48.200;16.338;2022-07-06T15:54:19;24.00;80.80
40053;DHT22;25758;48.200;16.338;2022-07-06T15:56:45;24.10;80.00
40053;DHT22;25758;48.200;16.338;2022-07-06T15:59:10;24.20;80.10
40053;DHT22;25758;48.200;16.338;2022-07-06T16:01:36;24.20;78.60
40053;DHT22;25758;48.200;16.338;2022-07-06T16:04:02;24.30;78.40
40053;DHT22;25758;48.200;16.338;2022-07-06T16:06:28;24.40;78.40
40053;DHT22;25758;48.200;16.338;2022-07-06T16:08:53;24.40;79.60
40053;DHT22;25758;48.200;16.338;2022-07-06T16:13:45;24.50;81.40